createdAt,value
2022-08-25T00:00:14.627Z,4.25
2022-08-25T00:02:43.773Z,4.60
2022-08-25T00:05:26.111Z,3.83
2022-08-25T00:07:54.709Z,4.13
2022-08-25T00:10:21.857Z,4.10
2022-08-25T00:12:49.128Z,3.63
2022-08-25T00:15:16.439Z,4.07
2022-08-25T00:17:43.522Z,4.28
2022-08-25T00:20:10.923Z,5.10
2022-08-25T00:22:37.978Z,4.38
2022-08-25T00:25:05.398Z,4.35
2022-08-25T00:27:32.422Z,5.00
2022-08-25T00:30:00.353Z,5.38
2022-08-25T00:32:27.528Z,5.68
2022-08-25T00:34:54.545Z,7.78
2022-08-25T00:37:21.671Z,5.38
2022-08-25T00:39:48.762Z,5.15
2022-08-25T00:42:16.456Z,5.30
2022-08-25T00:44:44.086Z,5.70
2022-08-25T00:47:11.178Z,5.40
2022-08-25T00:49:45.371Z,5.20
2022-08-25T00:52:20.766Z,5.65
2022-08-25T00:55:04.355Z,5.75
2022-08-25T00:57:40.870Z,4.63
2022-08-25T01:00:14.276Z,4.60
2022-08-25T01:02:41.729Z,4.95
2022-08-25T01:05:09.745Z,5.07
2022-08-25T01:07:37.464Z,5.20
2022-08-25T01:10:07.699Z,4.22
2022-08-25T01:12:36.602Z,4.38
2022-08-25T01:15:06.517Z,4.70
2022-08-25T01:17:45.566Z,5.55
2022-08-25T01:20:14.836Z,5.55
2022-08-25T01:22:42.165Z,5.13
2022-08-25T01:25:24.379Z,5.88
2022-08-25T01:27:51.993Z,5.70
2022-08-25T01:30:19.304Z,5.45
2022-08-25T01:32:46.566Z,4.32
2022-08-25T01:35:14.315Z,4.07
2022-08-25T01:37:41.352Z,4.70
2022-08-25T01:40:09.270Z,4.78
2022-08-25T01:43:01.316Z,4.20
2022-08-25T01:45:28.893Z,3.95
2022-08-25T01:47:56.018Z,3.97
2022-08-25T01:50:23.316Z,4.00
2022-08-25T01:52:55.728Z,4.43
2022-08-25T01:55:23.346Z,4.57
2022-08-25T01:57:50.459Z,5.13
2022-08-25T02:00:20.101Z,8.68
2022-08-25T02:02:47.312Z,8.38
2022-08-25T02:05:23.320Z,10.73
2022-08-25T02:07:50.864Z,10.18
2022-08-25T02:10:17.886Z,8.25
2022-08-25T02:12:45.137Z,7.30
2022-08-25T02:15:12.448Z,6.97
2022-08-25T02:17:39.579Z,6.10
2022-08-25T02:20:09.627Z,5.38
2022-08-25T02:22:37.048Z,5.57
2022-08-25T02:25:05.836Z,5.18
2022-08-25T02:27:32.987Z,4.35
2022-08-25T02:30:00.045Z,4.60
2022-08-25T02:32:27.885Z,4.63
2022-08-25T02:34:54.955Z,4.60
2022-08-25T02:37:22.030Z,4.05
2022-08-25T02:39:49.137Z,4.75
2022-08-25T02:42:16.164Z,4.40
2022-08-25T02:44:43.221Z,3.33
2022-08-25T02:47:10.292Z,3.80
2022-08-25T02:49:37.622Z,3.90
2022-08-25T02:52:05.409Z,3.25
2022-08-25T02:54:32.500Z,3.90
2022-08-25T02:57:00.028Z,4.13
2022-08-25T02:59:27.230Z,3.25
2022-08-25T03:01:54.308Z,3.15
2022-08-25T03:04:21.405Z,3.42
2022-08-25T03:06:48.498Z,4.47
2022-08-25T03:09:16.685Z,5.07
2022-08-25T03:11:43.978Z,6.13
2022-08-25T03:14:11.220Z,6.53
2022-08-25T03:16:38.669Z,5.68
2022-08-25T03:19:06.203Z,8.15
2022-08-25T03:21:33.249Z,10.27
2022-08-25T03:24:00.739Z,9.43
2022-08-25T03:26:46.528Z,8.70
2022-08-25T03:29:14.028Z,6.95
2022-08-25T03:31:43.046Z,6.93
2022-08-25T03:34:10.570Z,6.75
2022-08-25T03:36:38.019Z,7.35
2022-08-25T03:39:06.235Z,6.55
2022-08-25T03:41:33.370Z,7.63
2022-08-25T03:44:01.431Z,6.28
2022-08-25T03:46:34.199Z,5.43
2022-08-25T03:49:03.092Z,6.13
2022-08-25T03:51:33.412Z,7.30
2022-08-25T03:54:01.615Z,8.02
2022-08-25T03:56:29.004Z,8.95
2022-08-25T03:58:57.080Z,7.55
2022-08-25T04:01:25.552Z,9.68
2022-08-25T04:03:52.998Z,8.10
2022-08-25T04:06:20.488Z,8.90
2022-08-25T04:08:48.139Z,9.50
2022-08-25T04:11:18.423Z,8.15
2022-08-25T04:13:46.805Z,8.82
2022-08-25T04:16:16.325Z,9.40
2022-08-25T04:18:44.549Z,7.38
2022-08-25T04:21:12.424Z,7.82
2022-08-25T04:23:41.712Z,6.50
2022-08-25T04:26:11.242Z,6.93
2022-08-25T04:28:38.344Z,8.73
2022-08-25T04:31:14.590Z,6.35
2022-08-25T04:33:42.344Z,7.43
2022-08-25T04:36:12.473Z,6.65
2022-08-25T04:38:41.396Z,5.80
2022-08-25T04:41:10.533Z,6.07
2022-08-25T04:43:39.891Z,7.05
2022-08-25T04:46:22.614Z,7.45
2022-08-25T04:48:53.337Z,6.32
2022-08-25T04:51:27.865Z,6.97
2022-08-25T04:53:55.287Z,6.47
2022-08-25T04:56:25.180Z,7.65
2022-08-25T04:58:53.968Z,6.68
2022-08-25T05:01:24.883Z,5.70
2022-08-25T05:03:59.520Z,5.90
2022-08-25T05:06:28.440Z,5.10
2022-08-25T05:08:57.165Z,5.40
2022-08-25T05:11:24.940Z,5.70
2022-08-25T05:13:54.639Z,5.25
2022-08-25T05:16:23.907Z,4.80
2022-08-25T05:18:52.183Z,5.88
2022-08-25T05:21:21.916Z,5.60
2022-08-25T05:23:49.711Z,5.03
2022-08-25T05:26:22.262Z,6.00
2022-08-25T05:28:51.481Z,5.40
2022-08-25T05:31:20.046Z,5.10
2022-08-25T05:33:47.451Z,5.03
2022-08-25T05:36:15.741Z,5.50
2022-08-25T05:38:43.432Z,5.28
2022-08-25T05:41:15.779Z,5.45
2022-08-25T05:43:44.722Z,5.25
2022-08-25T05:46:13.113Z,5.53
2022-08-25T05:48:40.511Z,6.57
2022-08-25T05:51:10.503Z,9.38
2022-08-25T05:53:39.850Z,8.30
2022-08-25T05:56:07.413Z,7.60
2022-08-25T05:58:34.663Z,9.82
2022-08-25T06:01:20.370Z,9.85
2022-08-25T06:03:48.187Z,9.15
2022-08-25T06:06:16.904Z,8.30
2022-08-25T06:08:45.124Z,8.07
2022-08-25T06:11:13.719Z,7.55
2022-08-25T06:13:41.202Z,6.80
2022-08-25T06:16:08.581Z,7.45
2022-08-25T06:18:35.873Z,8.48
2022-08-25T06:21:14.303Z,10.20
2022-08-25T06:23:42.389Z,9.52
2022-08-25T06:26:20.636Z,10.77
2022-08-25T06:28:50.822Z,10.40
2022-08-25T06:31:19.146Z,10.45
2022-08-25T06:33:47.174Z,10.95
2022-08-25T06:36:15.527Z,8.93
2022-08-25T06:38:42.648Z,11.00
2022-08-25T06:41:13.094Z,12.35
2022-08-25T06:43:48.095Z,12.35
2022-08-25T06:46:23.086Z,12.73
2022-08-25T06:49:03.780Z,12.05
2022-08-25T06:51:30.803Z,12.10
2022-08-25T06:53:57.847Z,9.20
2022-08-25T06:56:24.853Z,10.23
2022-08-25T06:58:53.911Z,10.85
2022-08-25T07:01:26.333Z,9.55
2022-08-25T07:03:59.436Z,8.63
2022-08-25T07:06:31.698Z,9.27
2022-08-25T07:08:59.688Z,8.85
2022-08-25T07:11:27.419Z,9.90
2022-08-25T07:13:54.682Z,8.88
2022-08-25T07:16:22.043Z,7.20
2022-08-25T07:18:49.720Z,11.95
2022-08-25T07:21:18.764Z,9.88
2022-08-25T07:23:47.959Z,8.25
2022-08-25T07:26:39.094Z,7.07
2022-08-25T07:29:42.233Z,3.80
2022-08-25T07:32:09.873Z,3.20
2022-08-25T07:34:56.325Z,2.83
2022-08-25T07:37:48.410Z,2.42
2022-08-25T07:40:14.290Z,2.10
2022-08-25T07:42:42.416Z,2.20
2022-08-25T07:45:11.297Z,1.75
2022-08-25T07:47:39.025Z,2.33
2022-08-25T07:50:12.364Z,2.20
2022-08-25T07:52:42.716Z,1.60
2022-08-25T07:55:11.056Z,1.70
2022-08-25T07:57:40.936Z,1.52
2022-08-25T08:00:10.972Z,1.50
2022-08-25T08:02:42.149Z,1.52
2022-08-25T08:05:10.612Z,1.73
2022-08-25T08:07:43.311Z,1.52
2022-08-25T08:13:01.939Z,1.90
2022-08-25T08:15:29.857Z,1.98
2022-08-25T08:17:59.096Z,1.77
2022-08-25T08:20:27.072Z,1.67
2022-08-25T08:22:55.779Z,1.60
2022-08-25T08:25:27.272Z,1.55
2022-08-25T08:27:55.463Z,1.38
2022-08-25T08:30:26.458Z,1.80
2022-08-25T08:33:11.364Z,1.40
2022-08-25T08:35:40.413Z,1.20
2022-08-25T08:38:14.953Z,1.40
2022-08-25T08:41:48.891Z,1.73
2022-08-25T08:44:57.068Z,1.52
2022-08-25T08:47:26.626Z,1.50
2022-08-25T08:50:03.808Z,1.52
2022-08-25T08:52:40.739Z,1.45
2022-08-25T08:55:15.886Z,1.50
2022-08-25T09:00:20.186Z,1.75
2022-08-25T09:03:06.463Z,1.50
2022-08-25T09:05:50.295Z,1.40
2022-08-25T09:08:20.428Z,1.52
2022-08-25T09:10:54.265Z,1.40
2022-08-25T09:14:01.941Z,1.52
2022-08-25T09:16:55.883Z,1.35
2022-08-25T09:19:41.781Z,2.00
2022-08-25T09:22:35.102Z,1.77
2022-08-25T09:28:30.452Z,2.10
2022-08-25T09:31:19.695Z,2.08
2022-08-25T09:33:46.895Z,2.30
2022-08-25T09:36:14.883Z,2.10
2022-08-25T09:38:42.136Z,2.72
2022-08-25T09:41:11.349Z,2.75
2022-08-25T09:43:44.694Z,2.30
2022-08-25T09:46:14.043Z,2.70
2022-08-25T09:48:57.454Z,2.17
2022-08-25T09:51:37.829Z,2.17
2022-08-25T09:54:15.303Z,2.47
2022-08-25T09:57:01.971Z,2.55
2022-08-25T09:59:35.894Z,2.55
2022-08-25T10:02:32.885Z,2.50
2022-08-25T10:04:59.978Z,2.38
2022-08-25T10:07:37.176Z,2.20
2022-08-25T10:10:17.714Z,2.20
2022-08-25T10:12:51.363Z,2.30
2022-08-25T10:15:29.365Z,2.17
2022-08-25T10:18:26.110Z,2.00
2022-08-25T10:21:07.410Z,2.20
2022-08-25T10:23:38.883Z,1.98
2022-08-25T10:26:15.073Z,2.00
2022-08-25T10:28:59.218Z,2.25
2022-08-25T10:31:41.569Z,2.08
2022-08-25T10:34:31.299Z,1.83
2022-08-25T10:37:36.070Z,2.13
2022-08-25T10:40:21.055Z,1.90
2022-08-25T10:42:54.329Z,2.00
2022-08-25T10:45:44.474Z,1.98
2022-08-25T10:48:45.141Z,1.80
2022-08-25T10:51:41.069Z,1.77
2022-08-25T10:54:25.787Z,2.10
2022-08-25T10:57:07.081Z,2.05
2022-08-25T11:00:03.571Z,1.92
2022-08-25T11:02:52.534Z,2.03
2022-08-25T11:05:49.074Z,2.13
2022-08-25T11:08:38.449Z,2.25
2022-08-25T11:11:08.952Z,2.03
2022-08-25T11:13:50.678Z,2.20
2022-08-25T11:16:25.647Z,2.03
2022-08-25T11:19:21.670Z,1.90
2022-08-25T11:21:57.292Z,1.90
2022-08-25T11:24:43.175Z,2.22
2022-08-25T11:27:17.717Z,1.60
2022-08-25T11:30:08.472Z,1.85
2022-08-25T11:32:37.943Z,1.88
2022-08-25T11:35:10.241Z,1.77
2022-08-25T11:38:08.208Z,1.58
2022-08-25T11:40:56.256Z,1.20
2022-08-25T11:43:50.187Z,1.50
2022-08-25T11:46:31.485Z,1.35
2022-08-25T11:49:22.730Z,1.25
2022-08-25T11:51:51.480Z,1.20
2022-08-25T11:54:41.659Z,1.20
2022-08-25T11:57:23.964Z,1.13
2022-08-25T11:59:54.293Z,1.42
2022-08-25T12:02:36.648Z,1.00
2022-08-25T12:05:12.126Z,1.02
2022-08-25T12:08:20.108Z,1.38
2022-08-25T12:11:01.346Z,0.95
2022-08-25T12:13:50.871Z,0.90
2022-08-25T12:16:36.382Z,1.17
2022-08-25T12:19:25.495Z,1.30
2022-08-25T12:21:55.106Z,1.27
2022-08-25T12:24:48.791Z,1.00
2022-08-25T12:27:53.629Z,1.35
2022-08-25T12:30:38.634Z,1.00
2022-08-25T12:33:34.355Z,1.25
2022-08-25T12:36:11.190Z,1.33
2022-08-25T12:38:53.024Z,1.17
2022-08-25T12:41:27.125Z,0.98
2022-08-25T12:44:31.727Z,1.20
2022-08-25T12:47:12.544Z,1.10
2022-08-25T12:49:40.142Z,1.30
2022-08-25T12:52:16.695Z,1.23
2022-08-25T12:54:58.790Z,0.95
2022-08-25T12:57:50.138Z,1.42
2022-08-25T13:00:23.739Z,1.20
2022-08-25T13:03:05.364Z,1.30
2022-08-25T13:06:14.080Z,0.80
2022-08-25T13:08:46.954Z,1.10
2022-08-25T13:11:43.275Z,1.10
2022-08-25T13:14:37.577Z,1.00
2022-08-25T13:17:06.181Z,1.23
2022-08-25T13:19:34.618Z,0.95
2022-08-25T13:22:15.556Z,1.02
2022-08-25T13:24:45.612Z,1.55
2022-08-25T13:27:28.426Z,1.15
2022-08-25T13:29:59.088Z,1.13
2022-08-25T13:32:32.428Z,1.33
2022-08-25T13:35:12.464Z,1.17
2022-08-25T13:37:41.338Z,1.38
2022-08-25T13:40:14.479Z,1.20
2022-08-25T13:42:55.916Z,1.40
2022-08-25T13:45:30.068Z,1.17
2022-08-25T13:47:59.456Z,1.20
2022-08-25T13:50:26.880Z,1.30
2022-08-25T13:53:21.478Z,1.20
2022-08-25T13:55:52.236Z,1.20
2022-08-25T13:58:44.530Z,1.30
2022-08-25T14:01:23.530Z,1.30
2022-08-25T14:04:23.362Z,1.30
2022-08-25T14:07:34.460Z,1.40
2022-08-25T14:10:07.361Z,1.25
2022-08-25T14:12:44.797Z,1.30
2022-08-25T14:15:26.093Z,1.30
2022-08-25T14:18:13.826Z,1.02
2022-08-25T14:20:47.577Z,1.30
2022-08-25T14:23:19.481Z,1.50
2022-08-25T14:25:47.694Z,1.40
2022-08-25T14:28:18.135Z,1.00
2022-08-25T14:30:52.299Z,1.17
2022-08-25T14:33:23.246Z,1.20
2022-08-25T14:35:54.305Z,1.75
2022-08-25T14:38:24.814Z,1.08
2022-08-25T14:40:53.600Z,1.23
2022-08-25T14:43:23.970Z,1.13
2022-08-25T14:45:52.109Z,1.10
2022-08-25T14:48:42.526Z,1.48
2022-08-25T14:51:12.044Z,1.20
2022-08-25T14:53:39.374Z,1.13
2022-08-25T14:56:10.179Z,1.25
2022-08-25T14:58:51.252Z,1.10
2022-08-25T15:01:29.251Z,1.10
2022-08-25T15:04:16.016Z,1.10
2022-08-25T15:06:45.664Z,0.95
2022-08-25T15:09:16.542Z,1.23
2022-08-25T15:11:46.875Z,1.20
2022-08-25T15:14:17.479Z,1.08
2022-08-25T15:16:48.281Z,1.55
2022-08-25T15:19:18.830Z,1.20
2022-08-25T15:21:48.068Z,1.17
2022-08-25T15:24:17.525Z,1.08
2022-08-25T15:29:28.026Z,1.00
2022-08-25T15:31:55.449Z,1.00
2022-08-25T15:34:22.665Z,1.38
2022-08-25T15:36:50.382Z,0.93
2022-08-25T15:39:19.209Z,1.15
2022-08-25T15:41:52.956Z,1.30
2022-08-25T15:44:21.181Z,1.50
2022-08-25T15:46:50.286Z,1.20
2022-08-25T15:49:20.863Z,1.17
2022-08-25T15:51:52.534Z,1.02
2022-08-25T15:54:21.007Z,0.90
2022-08-25T15:56:48.209Z,0.90
2022-08-25T15:59:15.293Z,1.13
2022-08-25T16:01:43.823Z,1.08
2022-08-25T16:04:11.523Z,1.02
2022-08-25T16:06:38.889Z,1.10
2022-08-25T16:09:07.277Z,1.20
2022-08-25T16:11:35.646Z,1.10
2022-08-25T16:14:06.387Z,1.05
2022-08-25T16:16:33.666Z,1.50
2022-08-25T16:19:01.836Z,1.27
2022-08-25T16:21:33.109Z,1.33
2022-08-25T16:24:05.454Z,1.00
2022-08-25T16:26:36.582Z,1.17
2022-08-25T16:29:06.551Z,1.30
2022-08-25T16:31:33.885Z,1.30
2022-08-25T16:34:01.813Z,1.10
2022-08-25T16:36:29.418Z,1.10
2022-08-25T16:38:57.910Z,1.10
2022-08-25T16:41:34.023Z,1.05
2022-08-25T16:44:11.265Z,1.25
2022-08-25T16:46:40.830Z,1.02
2022-08-25T16:49:09.249Z,1.25
2022-08-25T16:51:38.485Z,1.25
2022-08-25T16:54:25.696Z,1.40
2022-08-25T16:56:54.661Z,1.23
2022-08-25T16:59:23.569Z,1.40
2022-08-25T17:01:51.635Z,1.33
2022-08-25T17:04:18.913Z,1.38
2022-08-25T17:06:49.588Z,1.27
2022-08-25T17:09:23.911Z,1.08
2022-08-25T17:11:54.236Z,1.70
2022-08-25T17:14:22.155Z,1.50
2022-08-25T17:16:51.207Z,1.30
2022-08-25T17:19:18.963Z,1.30
2022-08-25T17:21:47.296Z,1.27
2022-08-25T17:24:17.428Z,1.40
2022-08-25T17:26:47.290Z,1.73
2022-08-25T17:29:17.426Z,1.63
2022-08-25T17:31:48.322Z,1.40
2022-08-25T17:34:16.942Z,1.38
2022-08-25T17:36:48.444Z,1.45
2022-08-25T17:39:18.304Z,1.90
2022-08-25T17:41:45.811Z,1.55
2022-08-25T17:44:13.776Z,1.38
2022-08-25T17:46:47.333Z,1.40
2022-08-25T17:49:17.212Z,1.50
2022-08-25T17:51:44.471Z,1.45
2022-08-25T17:54:12.650Z,1.10
2022-08-25T17:56:39.991Z,1.30
2022-08-25T17:59:08.170Z,1.50
2022-08-25T18:01:40.678Z,1.50
2022-08-25T18:04:15.605Z,1.58
2022-08-25T18:06:45.618Z,1.58
2022-08-25T18:09:13.053Z,1.58
2022-08-25T18:11:40.172Z,1.80
2022-08-25T18:14:10.746Z,1.67
2022-08-25T18:16:38.494Z,1.42
2022-08-25T18:19:09.440Z,1.58
2022-08-25T18:21:37.112Z,1.80
2022-08-25T18:24:05.271Z,1.63
2022-08-25T18:26:32.972Z,1.55
2022-08-25T18:29:00.718Z,1.40
2022-08-25T18:31:28.264Z,1.80
2022-08-25T18:33:55.493Z,1.88
2022-08-25T18:36:22.635Z,1.70
2022-08-25T18:39:09.073Z,1.58
2022-08-25T18:41:40.101Z,1.55
2022-08-25T18:44:07.755Z,1.80
2022-08-25T18:46:35.444Z,1.90
2022-08-25T18:49:03.591Z,1.50
2022-08-25T18:51:32.888Z,1.73
2022-08-25T18:54:01.230Z,1.73
2022-08-25T18:56:29.162Z,1.73
2022-08-25T18:58:57.172Z,1.63
2022-08-25T19:01:24.556Z,1.90
2022-08-25T19:03:51.745Z,1.63
2022-08-25T19:06:19.550Z,1.50
2022-08-25T19:08:48.151Z,1.73
2022-08-25T19:11:16.187Z,1.90
2022-08-25T19:13:43.949Z,1.67
2022-08-25T19:16:34.109Z,1.63
2022-08-25T19:19:02.526Z,1.80
2022-08-25T19:21:31.311Z,2.13
2022-08-25T19:24:00.659Z,1.50
2022-08-25T19:26:30.680Z,1.35
2022-08-25T19:28:58.019Z,1.60
2022-08-25T19:31:26.583Z,1.65
2022-08-25T19:33:55.800Z,2.00
2022-08-25T19:36:28.119Z,1.58
2022-08-25T19:38:58.678Z,1.60
2022-08-25T19:41:27.789Z,1.20
2022-08-25T19:43:57.470Z,1.45
2022-08-25T19:46:35.688Z,1.90
2022-08-25T19:49:16.260Z,1.83
2022-08-25T19:51:47.529Z,1.67
2022-08-25T19:54:24.287Z,1.45
2022-08-25T19:56:54.755Z,1.70
2022-08-25T19:59:40.467Z,1.55
2022-08-25T20:02:15.474Z,1.67
2022-08-25T20:04:49.222Z,1.77
2022-08-25T20:07:18.847Z,1.73
2022-08-25T20:09:46.107Z,1.98
2022-08-25T20:14:47.917Z,1.63
2022-08-25T20:17:24.685Z,2.00
2022-08-25T20:19:58.791Z,1.63
2022-08-25T20:22:28.306Z,1.90
2022-08-25T20:25:01.264Z,2.47
2022-08-25T20:27:35.866Z,1.60
2022-08-25T20:30:09.819Z,1.80
2022-08-25T20:32:37.344Z,2.17
2022-08-25T20:35:08.942Z,1.70
2022-08-25T20:37:36.697Z,2.25
2022-08-25T20:40:07.167Z,2.00
2022-08-25T20:42:34.768Z,2.70
2022-08-25T20:45:01.928Z,2.33
2022-08-25T20:47:29.117Z,2.20
2022-08-25T20:50:00.364Z,2.08
2022-08-25T20:52:32.014Z,1.85
2022-08-25T20:54:59.431Z,2.10
2022-08-25T20:57:26.937Z,2.05
2022-08-25T20:59:56.994Z,2.10
2022-08-25T21:02:25.713Z,2.10
2022-08-25T21:04:54.276Z,2.70
2022-08-25T21:07:24.909Z,2.03
2022-08-25T21:09:52.402Z,2.20
2022-08-25T21:12:20.682Z,2.22
2022-08-25T21:14:48.276Z,2.00
2022-08-25T21:17:16.363Z,2.20
2022-08-25T21:22:13.807Z,2.05
2022-08-25T21:24:41.023Z,1.90
2022-08-25T21:27:08.337Z,1.83
2022-08-25T21:29:35.751Z,1.80
2022-08-25T21:32:03.011Z,1.90
2022-08-25T21:34:31.156Z,1.83
2022-08-25T21:36:59.401Z,2.10
2022-08-25T21:39:28.790Z,2.10
2022-08-25T21:41:56.603Z,2.00
2022-08-25T21:44:23.750Z,2.13
2022-08-25T21:46:54.281Z,2.13
2022-08-25T21:49:23.042Z,2.10
2022-08-25T21:52:02.379Z,2.10
2022-08-25T21:54:32.222Z,2.17
2022-08-25T21:57:05.689Z,2.58
2022-08-25T21:59:36.691Z,2.30
2022-08-25T22:02:07.484Z,3.80
2022-08-25T22:04:35.820Z,3.10
2022-08-25T22:07:03.037Z,3.22
2022-08-25T22:09:31.361Z,3.40
2022-08-25T22:11:59.060Z,2.70
2022-08-25T22:14:26.770Z,2.80
2022-08-25T22:16:55.182Z,2.70
2022-08-25T22:19:22.757Z,2.25
2022-08-25T22:21:51.108Z,2.00
2022-08-25T22:24:19.403Z,2.60
2022-08-25T22:26:49.201Z,3.10
2022-08-25T22:29:24.847Z,2.45
2022-08-25T22:31:53.032Z,2.83
2022-08-25T22:34:30.283Z,2.33
2022-08-25T22:37:00.163Z,2.53
2022-08-25T22:39:28.438Z,2.83
2022-08-25T22:41:55.768Z,2.88
2022-08-25T22:44:23.508Z,3.20
2022-08-25T22:46:50.597Z,4.80
2022-08-25T22:49:18.089Z,5.22
2022-08-25T22:51:47.093Z,5.65
2022-08-25T22:54:15.233Z,3.55
2022-08-25T22:56:42.623Z,3.72
2022-08-25T22:59:13.197Z,2.85
2022-08-25T23:01:42.749Z,2.97
2022-08-25T23:04:10.695Z,2.45
2022-08-25T23:06:38.357Z,3.13
2022-08-25T23:09:08.085Z,3.30
2022-08-25T23:11:38.584Z,3.15
2022-08-25T23:14:10.249Z,2.67
2022-08-25T23:16:42.453Z,3.20
2022-08-25T23:19:11.125Z,4.00
2022-08-25T23:22:00.631Z,2.88
2022-08-25T23:24:30.268Z,3.67
2022-08-25T23:27:02.395Z,2.70
2022-08-25T23:29:31.903Z,3.03
2022-08-25T23:31:59.402Z,2.28
2022-08-25T23:34:27.227Z,3.28
2022-08-25T23:36:56.032Z,2.90
2022-08-25T23:39:23.170Z,3.13
2022-08-25T23:41:51.787Z,2.80
2022-08-25T23:44:20.237Z,2.88
2022-08-25T23:46:48.783Z,2.30
2022-08-25T23:49:18.954Z,2.17
2022-08-25T23:51:48.952Z,2.40
2022-08-25T23:54:18.947Z,2.55
2022-08-25T23:56:51.963Z,2.28
2022-08-25T23:59:25.262Z,2.40
